Time;durP1;ratioP1;P1;durP2;ratioP2;P2;SDS_P1;SDS_P2;PMS_P1;PMS_P2;Temp;Humidity;BMP_temperature;BMP_pressure;BME280_temperature;BME280_humidity;BME280_pressure;Samples;Min_cycle;Max_cycle;Signal;HPM_P1;HPM_P2
2021/12/15 00:00:19;;;;;;;22.58;8.75;;;;;;;;;;10333523;28;20543;-82
2021/12/15 00:05:22;;;;;;;17.80;9.70;;;;;;;;;;10333543;28;20038;-82
2021/12/15 00:10:24;;;;;;;17.23;10.13;;;;;;;;;;10333211;28;20357;-82
2021/12/15 00:15:27;;;;;;;21.77;11.40;;;;;;;;;;10334475;28;20035;-82
2021/12/15 00:20:28;;;;;;;17.17;10.15;;;;;;;;;;10333275;28;20482;-82
2021/12/15 00:25:32;;;;;;;23.23;10.60;;;;;;;;;;10333666;28;20448;-82
2021/12/15 00:30:32;;;;;;;18.85;11.10;;;;;;;;;;10423929;23;20057;-83
2021/12/15 00:35:35;;;;;;;17.90;11.00;;;;;;;;;;10373200;28;20065;-83
2021/12/15 00:40:35;;;;;;;18.27;10.52;;;;;;;;;;10373617;28;20034;-83
2021/12/15 00:45:36;;;;;;;18.63;10.45;;;;;;;;;;10372971;28;20408;-83
2021/12/15 00:50:38;;;;;;;17.70;10.48;;;;;;;;;;10373929;28;20030;-82
2021/12/15 00:55:39;;;;;;;21.23;10.88;;;;;;;;;;10373265;28;20037;-81
2021/12/15 01:00:49;;;;;;;18.67;10.70;;;;;;;;;;10377687;28;20503;-81
2021/12/15 01:05:53;;;;;;;19.80;10.70;;;;;;;;;;10380171;28;20041;-81
2021/12/15 01:11:07;;;;;;;14.57;9.65;;;;;;;;;;10380597;28;20038;-81
2021/12/15 01:21:28;;;;;;;14.40;9.32;;;;;;;;;;10379643;28;20038;-81
2021/12/15 01:26:28;;;;;;;17.55;10.32;;;;;;;;;;10378542;28;20018;-81
2021/12/15 01:31:29;;;;;;;16.15;10.45;;;;;;;;;;10374271;28;20054;-82
2021/12/15 01:36:30;;;;;;;15.25;9.63;;;;;;;;;;10347314;28;20526;-82
2021/12/15 01:41:30;;;;;;;17.92;9.38;;;;;;;;;;10364789;28;20034;-82
2021/12/15 01:51:50;;;;;;;16.10;10.70;;;;;;;;;;10380439;28;20042;-82
2021/12/15 01:56:51;;;;;;;15.38;10.05;;;;;;;;;;10379225;28;20439;-81
2021/12/15 02:01:52;;;;;;;16.42;9.77;;;;;;;;;;10377894;28;20108;-82
2021/12/15 02:06:52;;;;;;;13.25;9.13;;;;;;;;;;10378830;28;20117;-82
2021/12/15 02:11:53;;;;;;;14.80;9.30;;;;;;;;;;10377985;28;20042;-83
2021/12/15 02:16:53;;;;;;;14.85;9.32;;;;;;;;;;10377215;28;20040;-83
2021/12/15 02:21:54;;;;;;;14.93;8.88;;;;;;;;;;10377136;28;20033;-83
2021/12/15 02:26:59;;;;;;;17.13;9.60;;;;;;;;;;10377840;28;20041;-82
2021/12/15 02:37:16;;;;;;;14.65;9.35;;;;;;;;;;10377381;28;20033;-82
2021/12/15 02:42:18;;;;;;;14.48;9.45;;;;;;;;;;10368824;28;20117;-83
2021/12/15 02:47:22;;;;;;;11.80;9.02;;;;;;;;;;10376329;28;20460;-83
2021/12/15 02:52:23;;;;;;;14.25;9.43;;;;;;;;;;10376412;28;20060;-83
2021/12/15 02:57:23;;;;;;;14.40;8.88;;;;;;;;;;10375934;28;20041;-83
2021/12/15 03:18:04;;;;;;;12.75;8.63;;;;;;;;;;10375576;28;20037;-81
2021/12/15 03:23:07;;;;;;;11.07;7.93;;;;;;;;;;10374592;28;20034;-82
2021/12/15 03:33:35;;;;;;;13.15;8.55;;;;;;;;;;10373889;28;20050;-82
2021/12/15 03:38:37;;;;;;;10.05;7.32;;;;;;;;;;10374608;28;20026;-82
2021/12/15 03:43:37;;;;;;;10.93;7.70;;;;;;;;;;10374834;28;20041;-82
2021/12/15 03:48:42;;;;;;;11.80;8.07;;;;;;;;;;10375339;28;20112;-82
2021/12/15 03:53:43;;;;;;;14.73;8.05;;;;;;;;;;10376744;28;20041;-82
2021/12/15 03:58:45;;;;;;;15.93;7.70;;;;;;;;;;10374647;28;20026;-82
2021/12/15 04:03:50;;;;;;;13.45;7.63;;;;;;;;;;10369610;28;20038;-82
2021/12/15 04:08:51;;;;;;;10.70;6.88;;;;;;;;;;10374908;28;20423;-82
2021/12/15 04:13:52;;;;;;;11.38;8.13;;;;;;;;;;10373965;28;20037;-82
2021/12/15 04:18:52;;;;;;;10.18;7.47;;;;;;;;;;10374028;28;20139;-82
2021/12/15 04:23:55;;;;;;;10.40;6.90;;;;;;;;;;10373933;28;20065;-81
2021/12/15 04:28:55;;;;;;;10.40;7.03;;;;;;;;;;10374040;28;20038;-81
2021/12/15 04:34:00;;;;;;;11.50;7.97;;;;;;;;;;10378034;28;20456;-82
2021/12/15 04:39:01;;;;;;;10.73;7.35;;;;;;;;;;10380952;28;20029;-82
2021/12/15 04:44:10;;;;;;;8.73;6.47;;;;;;;;;;10381444;28;20092;-82
2021/12/15 04:49:13;;;;;;;10.63;7.20;;;;;;;;;;10381791;28;20034;-81
2021/12/15 04:54:14;;;;;;;8.93;6.35;;;;;;;;;;10381044;28;20048;-81
2021/12/15 04:59:16;;;;;;;9.23;6.60;;;;;;;;;;10381095;28;20084;-81
2021/12/15 05:04:17;;;;;;;8.85;6.25;;;;;;;;;;10380314;28;20074;-81
2021/12/15 05:09:17;;;;;;;10.55;6.68;;;;;;;;;;10380781;28;20053;-81
2021/12/15 05:14:19;;;;;;;11.40;6.78;;;;;;;;;;10380475;28;20030;-81
2021/12/15 05:19:20;;;;;;;9.27;6.63;;;;;;;;;;10380353;28;20236;-82
2021/12/15 05:24:30;;;;;;;9.13;6.70;;;;;;;;;;10379658;28;20025;-82
2021/12/15 05:29:31;;;;;;;9.45;6.45;;;;;;;;;;10339620;28;20416;-82
2021/12/15 05:34:32;;;;;;;8.55;5.90;;;;;;;;;;10321737;28;20030;-81
2021/12/15 05:39:33;;;;;;;8.98;6.15;;;;;;;;;;10378730;28;20473;-81
2021/12/15 05:44:34;;;;;;;8.23;5.95;;;;;;;;;;10378369;28;20079;-82
2021/12/15 05:49:34;;;;;;;8.00;5.97;;;;;;;;;;10378744;28;20037;-82
2021/12/15 05:54:36;;;;;;;8.00;5.90;;;;;;;;;;10379228;28;20109;-82
2021/12/15 05:59:37;;;;;;;8.60;6.30;;;;;;;;;;10378391;28;20034;-82
2021/12/15 06:04:38;;;;;;;8.40;5.90;;;;;;;;;;10377968;28;20112;-82
2021/12/15 06:09:38;;;;;;;9.47;6.10;;;;;;;;;;10378000;28;20072;-82
2021/12/15 06:14:39;;;;;;;9.60;6.47;;;;;;;;;;10376901;28;20598;-82
2021/12/15 06:19:39;;;;;;;8.93;6.70;;;;;;;;;;10362009;28;20121;-81
2021/12/15 06:24:40;;;;;;;11.43;6.88;;;;;;;;;;10359091;28;20108;-81
2021/12/15 06:29:40;;;;;;;11.40;5.80;;;;;;;;;;10375187;28;20048;-80
2021/12/15 06:34:41;;;;;;;7.53;5.65;;;;;;;;;;10363215;28;20427;-80
2021/12/15 06:39:42;;;;;;;8.25;5.28;;;;;;;;;;10357968;28;20037;-80
2021/12/15 06:44:43;;;;;;;7.15;5.35;;;;;;;;;;10376712;28;20048;-80
2021/12/15 07:00:48;;;;;;;11.57;5.50;;;;;;;;;;10270128;28;20469;-78
2021/12/15 07:05:50;;;;;;;14.17;6.00;;;;;;;;;;10335686;28;20030;-80
2021/12/15 07:10:51;;;;;;;9.43;5.45;;;;;;;;;;10352873;28;20129;-77
2021/12/15 07:16:00;;;;;;;8.60;5.75;;;;;;;;;;10375757;28;20151;-80
2021/12/15 07:21:06;;;;;;;11.55;5.50;;;;;;;;;;10366880;28;20034;-82
2021/12/15 07:26:07;;;;;;;13.65;5.63;;;;;;;;;;10375636;28;20034;-81
2021/12/15 07:31:09;;;;;;;11.95;5.47;;;;;;;;;;10361938;28;20042;-82
2021/12/15 07:36:09;;;;;;;11.93;5.53;;;;;;;;;;10379020;28;20042;-82
2021/12/15 07:41:37;;;;;;;7.38;5.20;;;;;;;;;;10379087;28;20033;-82
2021/12/15 07:46:37;;;;;;;13.55;5.25;;;;;;;;;;10375406;28;20030;-81
2021/12/15 07:51:41;;;;;;;6.20;4.80;;;;;;;;;;10374336;28;20040;-82
2021/12/15 07:56:42;;;;;;;11.18;5.40;;;;;;;;;;10373020;28;20463;-82
2021/12/15 08:01:43;;;;;;;6.72;4.70;;;;;;;;;;10367166;28;20043;-81
2021/12/15 08:06:45;;;;;;;8.02;4.75;;;;;;;;;;10333664;28;20034;-81
2021/12/15 08:11:46;;;;;;;9.07;5.55;;;;;;;;;;10333071;28;20134;-81
2021/12/15 08:16:46;;;;;;;11.68;5.28;;;;;;;;;;10364515;28;20038;-81
2021/12/15 08:21:47;;;;;;;10.13;5.00;;;;;;;;;;10373865;28;20030;-81
2021/12/15 08:26:47;;;;;;;11.02;4.53;;;;;;;;;;10374521;28;20482;-81
2021/12/15 08:31:48;;;;;;;8.00;5.07;;;;;;;;;;10373435;28;20404;-82
2021/12/15 08:36:50;;;;;;;8.20;5.10;;;;;;;;;;10356059;28;20033;-81
2021/12/15 08:41:50;;;;;;;6.95;4.78;;;;;;;;;;10373581;28;20520;-82
2021/12/15 08:46:51;;;;;;;10.18;4.88;;;;;;;;;;10373146;28;20171;-81
2021/12/15 08:51:52;;;;;;;9.38;5.07;;;;;;;;;;10353977;28;20026;-81
2021/12/15 08:56:53;;;;;;;6.63;4.55;;;;;;;;;;10332960;28;20088;-82
2021/12/15 09:01:54;;;;;;;7.30;4.72;;;;;;;;;;10332361;28;20030;-81
2021/12/15 09:06:55;;;;;;;12.45;5.05;;;;;;;;;;10332136;28;20113;-82
2021/12/15 09:11:55;;;;;;;9.55;4.60;;;;;;;;;;10332829;28;20528;-81
2021/12/15 09:16:57;;;;;;;7.20;4.90;;;;;;;;;;10332094;28;20384;-80
2021/12/15 09:22:02;;;;;;;6.38;4.55;;;;;;;;;;10336781;28;20128;-81
2021/12/15 09:27:03;;;;;;;8.68;4.80;;;;;;;;;;10338832;28;20388;-81
2021/12/15 09:32:04;;;;;;;6.80;4.80;;;;;;;;;;10361696;28;20050;-81
2021/12/15 09:37:05;;;;;;;7.18;5.13;;;;;;;;;;10361258;28;20025;-81
2021/12/15 09:42:05;;;;;;;9.95;4.32;;;;;;;;;;10378869;28;20073;-81
2021/12/15 09:47:21;;;;;;;6.00;4.55;;;;;;;;;;10360536;28;20044;-81
2021/12/15 10:03:04;;;;;;;7.00;4.33;;;;;;;;;;10378697;28;19913;-80
2021/12/15 10:18:54;;;;;;;5.70;4.32;;;;;;;;;;10377502;28;20380;-82
2021/12/15 10:23:55;;;;;;;5.28;3.72;;;;;;;;;;10376886;28;20084;-82
2021/12/15 10:28:56;;;;;;;5.88;4.30;;;;;;;;;;10373347;28;20044;-83
2021/12/15 10:33:59;;;;;;;4.80;4.20;;;;;;;;;;10357265;28;20042;-82
2021/12/15 10:39:04;;;;;;;5.45;4.10;;;;;;;;;;10338468;28;20105;-82
2021/12/15 10:44:13;;;;;;;5.82;4.10;;;;;;;;;;10368220;28;20041;-82
2021/12/15 10:49:17;;;;;;;5.23;4.00;;;;;;;;;;10365628;28;20354;-81
2021/12/15 10:54:24;;;;;;;6.53;4.18;;;;;;;;;;10335085;28;20031;-81
2021/12/15 10:59:29;;;;;;;6.70;4.45;;;;;;;;;;10338802;28;20069;-81
2021/12/15 11:04:49;;;;;;;6.00;4.13;;;;;;;;;;10367915;28;20080;-82
2021/12/15 11:09:53;;;;;;;4.95;3.80;;;;;;;;;;10342677;28;20043;-81
2021/12/15 11:15:27;;;;;;;4.65;4.00;;;;;;;;;;10341732;28;20384;-81
2021/12/15 11:20:36;;;;;;;4.18;3.20;;;;;;;;;;10334545;28;20117;-80
2021/12/15 11:25:44;;;;;;;6.15;3.90;;;;;;;;;;10359959;28;20037;-82
2021/12/15 11:30:53;;;;;;;5.95;4.07;;;;;;;;;;10340656;28;20490;-81
2021/12/15 11:36:01;;;;;;;6.28;3.83;;;;;;;;;;10346770;28;20053;-81
2021/12/15 11:41:14;;;;;;;4.38;3.70;;;;;;;;;;10369326;28;20468;-82
2021/12/15 11:46:36;;;;;;;6.95;3.97;;;;;;;;;;10356516;28;20038;-82
2021/12/15 11:51:47;;;;;;;4.03;3.40;;;;;;;;;;10335954;28;20042;-81
2021/12/15 11:57:22;;;;;;;4.63;3.50;;;;;;;;;;10333899;28;20414;-82
2021/12/15 12:02:44;;;;;;;4.43;3.50;;;;;;;;;;10343966;28;20034;-86
2021/12/15 12:07:47;;;;;;;5.82;4.25;;;;;;;;;;10333123;28;20181;-80
2021/12/15 12:12:53;;;;;;;4.80;3.72;;;;;;;;;;10370254;28;20498;-80
2021/12/15 12:17:57;;;;;;;5.70;3.38;;;;;;;;;;10366564;28;20504;-80
2021/12/15 12:23:00;;;;;;;5.00;3.30;;;;;;;;;;10374158;28;20420;-80
2021/12/15 12:28:00;;;;;;;5.72;3.50;;;;;;;;;;10355555;28;20123;-79
2021/12/15 12:33:04;;;;;;;4.72;3.90;;;;;;;;;;10436617;23;20054;-80
2021/12/15 12:38:15;;;;;;;3.58;3.08;;;;;;;;;;10373690;28;20349;-79
2021/12/15 12:43:36;;;;;;;4.95;3.50;;;;;;;;;;10373005;28;20022;-79
2021/12/15 12:48:56;;;;;;;4.88;3.58;;;;;;;;;;10372003;28;20041;-80
2021/12/15 12:59:28;;;;;;;8.35;3.53;;;;;;;;;;10364449;28;20502;-80
2021/12/15 13:04:37;;;;;;;3.92;3.08;;;;;;;;;;10379233;28;20503;-80
2021/12/15 13:09:45;;;;;;;;;;;;;;;;;;10373327;28;20045;-79
2021/12/15 13:14:45;;;;;;;6.95;3.80;;;;;;;;;;10372709;28;19916;-80
2021/12/15 13:19:46;;;;;;;9.02;3.78;;;;;;;;;;10379465;28;20034;-79
2021/12/15 13:30:31;;;;;;;5.57;3.70;;;;;;;;;;10382191;28;20049;-79
2021/12/15 13:35:53;;;;;;;5.85;3.45;;;;;;;;;;10370872;28;20061;-80
2021/12/15 13:46:48;;;;;;;5.40;3.35;;;;;;;;;;10344112;28;20076;-81
2021/12/15 13:52:01;;;;;;;4.13;3.28;;;;;;;;;;10376327;28;20045;-81
2021/12/15 13:57:12;;;;;;;4.20;3.38;;;;;;;;;;10348425;28;20473;-80
2021/12/15 14:02:17;;;;;;;3.90;2.95;;;;;;;;;;10363158;28;20109;-81
2021/12/15 14:07:35;;;;;;;5.38;3.58;;;;;;;;;;10374689;28;20132;-83
2021/12/15 14:12:45;;;;;;;8.63;3.43;;;;;;;;;;10375519;28;20030;-81
2021/12/15 14:17:55;;;;;;;7.68;3.78;;;;;;;;;;10376966;28;20482;-82
2021/12/15 14:23:04;;;;;;;5.22;3.10;;;;;;;;;;10377347;28;20117;-81
2021/12/15 14:28:16;;;;;;;3.78;2.72;;;;;;;;;;10370106;28;20097;-81
2021/12/15 14:33:28;;;;;;;4.10;2.92;;;;;;;;;;10376935;28;20104;-81
2021/12/15 14:38:58;;;;;;;7.97;3.10;;;;;;;;;;10376388;28;20026;-82
2021/12/15 14:44:10;;;;;;;6.35;3.08;;;;;;;;;;10335344;28;20476;-82
2021/12/15 14:49:15;;;;;;;3.90;2.75;;;;;;;;;;10362159;28;20036;-82
2021/12/15 14:54:20;;;;;;;4.43;3.13;;;;;;;;;;10376263;28;20038;-82
2021/12/15 14:59:27;;;;;;;3.70;2.45;;;;;;;;;;10345487;28;20125;-82
2021/12/15 15:04:29;;;;;;;4.28;2.85;;;;;;;;;;10368357;28;20034;-83
2021/12/15 15:09:33;;;;;;;3.55;2.63;;;;;;;;;;10347906;28;20389;-82
2021/12/15 15:14:38;;;;;;;4.97;3.15;;;;;;;;;;10345962;28;20460;-83
2021/12/15 15:19:52;;;;;;;3.05;2.63;;;;;;;;;;10362397;28;20130;-83
2021/12/15 15:24:54;;;;;;;4.05;3.17;;;;;;;;;;10335503;28;20030;-83
2021/12/15 15:29:58;;;;;;;5.78;2.80;;;;;;;;;;10334281;28;20061;-83
2021/12/15 15:35:10;;;;;;;4.40;3.20;;;;;;;;;;10343457;28;20033;-83
2021/12/15 15:40:33;;;;;;;3.55;3.10;;;;;;;;;;10334068;28;20034;-82
2021/12/15 15:45:42;;;;;;;3.47;2.65;;;;;;;;;;10334223;28;20046;-83
2021/12/15 15:50:46;;;;;;;3.47;2.97;;;;;;;;;;10347567;28;20084;-83
2021/12/15 15:55:48;;;;;;;3.45;2.78;;;;;;;;;;10374300;28;20029;-83
2021/12/15 16:01:00;;;;;;;3.10;2.80;;;;;;;;;;10361309;28;20030;-83
2021/12/15 16:06:04;;;;;;;3.10;2.33;;;;;;;;;;10333673;28;20126;-83
2021/12/15 16:11:07;;;;;;;4.65;3.05;;;;;;;;;;10316421;28;20042;-83
2021/12/15 16:16:33;;;;;;;3.95;2.70;;;;;;;;;;10333674;28;20078;-83
2021/12/15 16:28:12;;;;;;;4.80;2.72;;;;;;;;;;10321901;28;20472;-83
2021/12/15 16:33:56;;;;;;;3.50;2.78;;;;;;;;;;10323599;28;20056;-82
2021/12/15 16:40:02;;;;;;;5.55;3.15;;;;;;;;;;10318216;28;20046;-79
2021/12/15 16:45:41;;;;;;;4.97;2.72;;;;;;;;;;10338973;28;20026;-83
2021/12/15 16:51:35;;;;;;;6.50;3.05;;;;;;;;;;10335767;28;20053;-83
2021/12/15 16:57:40;;;;;;;5.88;3.35;;;;;;;;;;10316843;28;20050;-82
2021/12/15 17:03:26;;;;;;;6.57;3.88;;;;;;;;;;10320527;28;20105;-82
2021/12/15 17:09:00;;;;;;;6.55;3.20;;;;;;;;;;10331378;28;20050;-82
2021/12/15 17:14:50;;;;;;;7.90;4.00;;;;;;;;;;10318714;28;20042;-82
2021/12/15 17:20:32;;;;;;;7.68;3.60;;;;;;;;;;10328031;28;20073;-83
2021/12/15 17:26:16;;;;;;;6.15;3.80;;;;;;;;;;10276589;28;20081;-82
2021/12/15 17:32:00;;;;;;;5.47;3.70;;;;;;;;;;10260789;28;20404;-82
2021/12/15 17:37:27;;;;;;;6.70;3.80;;;;;;;;;;10332956;28;20508;-82
2021/12/15 17:42:34;;;;;;;11.47;4.50;;;;;;;;;;10316839;28;20053;-80
2021/12/15 17:48:03;;;;;;;8.13;4.22;;;;;;;;;;10336750;28;20050;-81
2021/12/15 17:53:21;;;;;;;5.88;4.05;;;;;;;;;;10337549;28;20032;-81
2021/12/15 17:58:29;;;;;;;8.07;4.70;;;;;;;;;;10335106;28;20038;-82
2021/12/15 18:03:47;;;;;;;12.50;4.82;;;;;;;;;;10336248;28;20069;-82
2021/12/15 18:08:56;;;;;;;13.73;5.50;;;;;;;;;;10333323;28;20050;-82
2021/12/15 18:14:29;;;;;;;;;;;;;;;;;;10308577;28;20290;-82
2021/12/15 18:20:13;;;;;;;18.30;6.35;;;;;;;;;;10301196;28;20280;-82
2021/12/15 18:25:24;;;;;;;15.13;6.40;;;;;;;;;;10328784;28;20061;-82
2021/12/15 18:30:57;;;;;;;17.60;6.25;;;;;;;;;;10307533;28;20047;-82
2021/12/15 18:36:33;;;;;;;15.75;5.82;;;;;;;;;;10289712;28;20062;-83
2021/12/15 18:42:04;;;;;;;20.67;6.10;;;;;;;;;;10277621;28;20047;-83
2021/12/15 18:47:09;;;;;;;13.63;5.38;;;;;;;;;;10265091;28;20070;-82
2021/12/15 18:52:38;;;;;;;13.02;6.05;;;;;;;;;;10274307;28;20035;-83
2021/12/15 18:57:43;;;;;;;;;;;;;;;;;;10295230;28;20467;-83
2021/12/15 19:03:05;;;;;;;15.93;6.15;;;;;;;;;;10293474;28;20336;-83
2021/12/15 19:14:01;;;;;;;13.43;6.03;;;;;;;;;;10292529;28;20552;-83
2021/12/15 19:19:53;;;;;;;20.20;6.32;;;;;;;;;;10293366;28;20047;-83
2021/12/15 19:37:46;;;;;;;15.88;6.43;;;;;;;;;;10241642;29;20055;-83
2021/12/15 19:43:41;;;;;;;10.95;5.63;;;;;;;;;;10213037;29;20147;-83
2021/12/15 19:49:56;;;;;;;10.68;6.63;;;;;;;;;;10227193;29;20118;-83
2021/12/15 19:55:42;;;;;;;17.52;6.72;;;;;;;;;;10091576;29;20181;-83
2021/12/15 20:01:46;;;;;;;12.32;6.18;;;;;;;;;;10073358;29;20101;-83
2021/12/15 20:07:04;;;;;;;10.38;6.25;;;;;;;;;;10116470;29;20514;-83
2021/12/15 20:12:20;;;;;;;11.70;6.28;;;;;;;;;;10112115;29;20093;-83
2021/12/15 20:17:50;;;;;;;18.08;6.55;;;;;;;;;;10136924;29;20487;-83
2021/12/15 20:23:55;;;;;;;11.73;6.65;;;;;;;;;;10130281;29;20115;-83
2021/12/15 20:29:48;;;;;;;14.02;6.47;;;;;;;;;;10187599;28;20054;-83
2021/12/15 20:35:22;;;;;;;13.93;6.40;;;;;;;;;;10168998;29;20032;-83
2021/12/15 20:41:11;;;;;;;10.30;6.00;;;;;;;;;;10150671;29;20085;-83
2021/12/15 20:46:57;;;;;;;10.40;6.00;;;;;;;;;;10082705;29;20144;-83
2021/12/15 20:52:23;;;;;;;8.63;6.03;;;;;;;;;;10071584;29;20092;-83
2021/12/15 21:03:50;;;;;;;11.35;6.53;;;;;;;;;;10092782;29;20043;-83
2021/12/15 21:08:54;;;;;;;11.52;6.82;;;;;;;;;;10247317;29;20500;-83
2021/12/15 21:14:31;;;;;;;13.32;5.90;;;;;;;;;;10248855;28;20126;-83
2021/12/15 21:20:40;;;;;;;9.48;6.28;;;;;;;;;;10259524;28;20043;-83
2021/12/15 21:26:57;;;;;;;10.35;6.22;;;;;;;;;;10284946;28;20066;-83
2021/12/15 21:32:49;;;;;;;12.85;7.00;;;;;;;;;;10258907;28;20042;-83
2021/12/15 21:45:20;;;;;;;12.35;6.47;;;;;;;;;;10135319;29;20434;-83
2021/12/15 21:50:55;;;;;;;13.20;6.75;;;;;;;;;;10057149;29;20488;-83
2021/12/15 21:57:03;;;;;;;14.15;6.82;;;;;;;;;;10057438;29;20053;-83
2021/12/15 22:02:31;;;;;;;9.70;5.87;;;;;;;;;;10020787;29;20537;-83
2021/12/15 22:07:45;;;;;;;9.27;6.47;;;;;;;;;;10025033;29;20049;-83
2021/12/15 22:13:20;;;;;;;11.63;6.40;;;;;;;;;;10053292;29;20049;-83
2021/12/15 22:19:10;;;;;;;11.43;6.22;;;;;;;;;;10084117;29;20476;-83
2021/12/15 22:24:58;;;;;;;14.25;6.53;;;;;;;;;;10207168;28;20042;-87
2021/12/15 22:30:36;;;;;;;9.07;6.22;;;;;;;;;;10294750;28;20504;-86
2021/12/15 22:36:10;;;;;;;;;;;;;;;;;;10241914;29;20509;-84
2021/12/15 22:42:12;;;;;;;15.77;6.70;;;;;;;;;;10252027;29;20435;-86
2021/12/15 22:53:58;;;;;;;23.92;7.30;;;;;;;;;;10232997;29;20050;-80
2021/12/15 23:00:28;;;;;;;17.35;8.32;;;;;;;;;;10243531;29;20179;-83
2021/12/15 23:18:24;;;;;;;20.80;8.15;;;;;;;;;;10092119;29;20068;-78
2021/12/15 23:29:51;;;;;;;18.27;8.73;;;;;;;;;;10090148;29;20033;-78
2021/12/15 23:35:51;;;;;;;21.35;8.75;;;;;;;;;;10088689;29;20048;-78
